sensor_id;sensor_type;location;lat;lon;timestamp;pressure;altitude;pressure_sealevel;temperature;humidity
69306;BME280;56427;51.580;4.656;2022-10-16T00:01:38;100932.59;;;12.18;100.00
69306;BME280;56427;51.580;4.656;2022-10-16T00:04:03;100933.53;;;12.17;100.00
69306;BME280;56427;51.580;4.656;2022-10-16T00:06:30;100927.94;;;12.21;100.00
69306;BME280;56427;51.580;4.656;2022-10-16T00:08:55;100926.28;;;12.20;100.00
69306;BME280;56427;51.580;4.656;2022-10-16T00:11:26;100924.94;;;12.26;100.00
69306;BME280;56427;51.580;4.656;2022-10-16T00:13:55;100930.41;;;12.32;100.00
69306;BME280;56427;51.580;4.656;2022-10-16T00:16:20;100926.28;;;12.30;100.00
69306;BME280;56427;51.580;4.656;2022-10-16T00:18:46;100927.66;;;12.34;100.00
69306;BME280;56427;51.580;4.656;2022-10-16T00:21:17;100924.94;;;12.26;100.00
69306;BME280;56427;51.580;4.656;2022-10-16T00:23:43;100930.41;;;12.32;100.00
69306;BME280;56427;51.580;4.656;2022-10-16T00:26:11;100920.00;;;12.32;100.00
69306;BME280;56427;51.580;4.656;2022-10-16T00:28:37;100923.81;;;12.38;100.00
69306;BME280;56427;51.580;4.656;2022-10-16T00:31:05;100928.47;;;12.34;100.00
69306;BME280;56427;51.580;4.656;2022-10-16T00:33:30;100929.59;;;12.42;100.00
69306;BME280;56427;51.580;4.656;2022-10-16T00:35:58;100942.63;;;12.42;100.00
69306;BME280;56427;51.580;4.656;2022-10-16T00:38:23;100943.84;;;12.47;100.00
69306;BME280;56427;51.580;4.656;2022-10-16T00:40:48;100956.72;;;12.59;100.00
69306;BME280;56427;51.580;4.656;2022-10-16T00:46:20;100949.84;;;12.48;100.00
69306;BME280;56427;51.580;4.656;2022-10-16T00:49:11;100964.94;;;12.54;100.00
69306;BME280;56427;51.580;4.656;2022-10-16T00:51:40;100954.25;;;12.57;100.00
69306;BME280;56427;51.580;4.656;2022-10-16T00:54:12;100946.84;;;12.62;100.00
69306;BME280;56427;51.580;4.656;2022-10-16T00:56:38;100944.91;;;12.64;100.00
69306;BME280;56427;51.580;4.656;2022-10-16T00:59:09;100931.09;;;12.54;100.00
69306;BME280;56427;51.580;4.656;2022-10-16T01:01:36;100929.69;;;12.60;100.00
69306;BME280;56427;51.580;4.656;2022-10-16T01:04:02;100937.25;;;12.53;100.00
69306;BME280;56427;51.580;4.656;2022-10-16T01:06:36;100944.38;;;12.51;100.00
69306;BME280;56427;51.580;4.656;2022-10-16T01:14:48;100928.22;;;12.28;100.00
69306;BME280;56427;51.580;4.656;2022-10-16T01:17:34;100923.81;;;12.28;100.00
69306;BME280;56427;51.580;4.656;2022-10-16T01:20:11;100930.00;;;12.18;100.00
69306;BME280;56427;51.580;4.656;2022-10-16T01:22:48;100929.31;;;12.15;100.00
69306;BME280;56427;51.580;4.656;2022-10-16T01:25:26;100929.19;;;12.17;100.00
69306;BME280;56427;51.580;4.656;2022-10-16T01:27:54;100929.72;;;12.21;100.00
69306;BME280;56427;51.580;4.656;2022-10-16T01:30:23;100927.53;;;12.16;100.00
69306;BME280;56427;51.580;4.656;2022-10-16T01:32:59;100933.28;;;12.20;100.00
69306;BME280;56427;51.580;4.656;2022-10-16T01:35:37;100936.13;;;12.17;100.00
69306;BME280;56427;51.580;4.656;2022-10-16T01:38:07;100932.47;;;12.19;100.00
69306;BME280;56427;51.580;4.656;2022-10-16T01:40:36;100927.53;;;12.26;100.00
69306;BME280;56427;51.580;4.656;2022-10-16T01:43:16;100922.47;;;12.24;100.00
69306;BME280;56427;51.580;4.656;2022-10-16T01:45:44;100936.69;;;12.01;100.00
69306;BME280;56427;51.580;4.656;2022-10-16T01:48:13;100934.50;;;12.06;100.00
69306;BME280;56427;51.580;4.656;2022-10-16T01:50:43;100936.41;;;12.04;100.00
69306;BME280;56427;51.580;4.656;2022-10-16T01:53:12;100927.78;;;12.03;100.00
69306;BME280;56427;51.580;4.656;2022-10-16T01:55:42;100927.38;;;11.98;100.00
69306;BME280;56427;51.580;4.656;2022-10-16T01:58:12;100929.81;;;12.00;100.00
69306;BME280;56427;51.580;4.656;2022-10-16T02:00:41;100938.72;;;11.97;100.00
69306;BME280;56427;51.580;4.656;2022-10-16T02:03:08;100946.31;;;11.89;100.00
69306;BME280;56427;51.580;4.656;2022-10-16T02:05:45;100945.16;;;11.93;100.00
69306;BME280;56427;51.580;4.656;2022-10-16T02:08:11;100941.84;;;11.91;100.00
69306;BME280;56427;51.580;4.656;2022-10-16T02:10:37;100941.03;;;12.00;100.00
69306;BME280;56427;51.580;4.656;2022-10-16T02:13:09;100940.75;;;11.93;100.00
69306;BME280;56427;51.580;4.656;2022-10-16T02:15:35;100943.38;;;11.93;100.00
69306;BME280;56427;51.580;4.656;2022-10-16T02:18:03;100932.69;;;11.96;100.00
69306;BME280;56427;51.580;4.656;2022-10-16T02:20:33;100935.16;;;11.98;100.00
69306;BME280;56427;51.580;4.656;2022-10-16T02:23:00;100941.88;;;12.01;100.00
69306;BME280;56427;51.580;4.656;2022-10-16T02:25:37;100937.22;;;12.04;100.00
69306;BME280;56427;51.580;4.656;2022-10-16T02:28:25;100945.44;;;12.00;100.00
69306;BME280;56427;51.580;4.656;2022-10-16T02:31:00;100949.25;;;12.05;100.00
69306;BME280;56427;51.580;4.656;2022-10-16T02:33:27;100952.72;;;12.06;100.00
69306;BME280;56427;51.580;4.656;2022-10-16T02:35:55;100950.63;;;12.00;100.00
69306;BME280;56427;51.580;4.656;2022-10-16T02:38:21;100946.38;;;11.99;100.00
69306;BME280;56427;51.580;4.656;2022-10-16T02:40:48;100944.88;;;11.96;100.00
69306;BME280;56427;51.580;4.656;2022-10-16T02:43:14;100947.16;;;11.89;100.00
69306;BME280;56427;51.580;4.656;2022-10-16T02:45:40;100944.03;;;11.95;100.00
69306;BME280;56427;51.580;4.656;2022-10-16T02:48:05;100931.28;;;11.83;100.00
69306;BME280;56427;51.580;4.656;2022-10-16T02:50:31;100938.97;;;11.94;100.00
69306;BME280;56427;51.580;4.656;2022-10-16T02:52:56;100937.34;;;11.93;100.00
69306;BME280;56427;51.580;4.656;2022-10-16T02:55:21;100944.34;;;11.92;100.00
69306;BME280;56427;51.580;4.656;2022-10-16T02:57:47;100953.91;;;11.92;100.00
69306;BME280;56427;51.580;4.656;2022-10-16T03:00:14;100946.78;;;11.94;100.00
69306;BME280;56427;51.580;4.656;2022-10-16T03:02:40;100951.25;;;11.82;100.00
69306;BME280;56427;51.580;4.656;2022-10-16T03:05:05;100950.34;;;11.93;100.00
69306;BME280;56427;51.580;4.656;2022-10-16T03:07:31;100948.50;;;11.84;100.00
69306;BME280;56427;51.580;4.656;2022-10-16T03:09:56;100956.72;;;11.89;100.00
69306;BME280;56427;51.580;4.656;2022-10-16T03:12:22;100958.75;;;11.75;100.00
69306;BME280;56427;51.580;4.656;2022-10-16T03:14:47;100964.47;;;11.69;100.00
69306;BME280;56427;51.580;4.656;2022-10-16T03:17:15;100970.09;;;11.65;100.00
69306;BME280;56427;51.580;4.656;2022-10-16T03:19:41;100963.91;;;11.66;100.00
69306;BME280;56427;51.580;4.656;2022-10-16T03:22:07;100966.50;;;11.66;100.00
69306;BME280;56427;51.580;4.656;2022-10-16T03:24:32;100969.66;;;11.69;100.00
69306;BME280;56427;51.580;4.656;2022-10-16T03:26:57;100971.97;;;11.63;100.00
69306;BME280;56427;51.580;4.656;2022-10-16T03:29:23;100980.06;;;11.59;100.00
69306;BME280;56427;51.580;4.656;2022-10-16T03:31:48;100973.88;;;11.60;100.00
69306;BME280;56427;51.580;4.656;2022-10-16T03:34:14;100983.59;;;11.58;100.00
69306;BME280;56427;51.580;4.656;2022-10-16T03:36:40;100984.72;;;11.66;100.00
69306;BME280;56427;51.580;4.656;2022-10-16T03:39:05;100983.91;;;11.65;100.00
69306;BME280;56427;51.580;4.656;2022-10-16T03:41:30;100992.09;;;11.60;100.00
69306;BME280;56427;51.580;4.656;2022-10-16T03:43:55;100983.03;;;11.55;100.00
69306;BME280;56427;51.580;4.656;2022-10-16T03:46:21;100991.53;;;11.57;100.00
69306;BME280;56427;51.580;4.656;2022-10-16T03:48:46;100988.13;;;11.56;100.00
69306;BME280;56427;51.580;4.656;2022-10-16T03:51:12;100996.28;;;11.52;100.00
69306;BME280;56427;51.580;4.656;2022-10-16T03:53:37;100989.75;;;11.57;100.00
69306;BME280;56427;51.580;4.656;2022-10-16T03:56:02;100982.19;;;11.54;100.00
69306;BME280;56427;51.580;4.656;2022-10-16T03:58:27;100988.13;;;11.56;100.00
69306;BME280;56427;51.580;4.656;2022-10-16T04:00:53;100994.00;;;11.58;100.00
69306;BME280;56427;51.580;4.656;2022-10-16T04:03:18;100999.75;;;11.62;100.00
69306;BME280;56427;51.580;4.656;2022-10-16T04:05:44;101002.59;;;11.59;100.00
69306;BME280;56427;51.580;4.656;2022-10-16T04:08:09;101000.69;;;11.61;100.00
69306;BME280;56427;51.580;4.656;2022-10-16T04:10:34;101003.84;;;11.55;100.00
69306;BME280;56427;51.580;4.656;2022-10-16T04:13:00;101008.66;;;11.59;100.00
69306;BME280;56427;51.580;4.656;2022-10-16T04:15:25;101017.00;;;11.63;100.00
69306;BME280;56427;51.580;4.656;2022-10-16T04:17:51;101013.13;;;11.57;100.00
69306;BME280;56427;51.580;4.656;2022-10-16T04:20:17;101021.78;;;11.58;100.00
69306;BME280;56427;51.580;4.656;2022-10-16T04:22:42;101019.63;;;11.42;100.00
69306;BME280;56427;51.580;4.656;2022-10-16T04:25:08;101018.03;;;11.51;100.00
69306;BME280;56427;51.580;4.656;2022-10-16T04:27:33;101024.31;;;11.48;100.00
69306;BME280;56427;51.580;4.656;2022-10-16T04:29:59;101025.66;;;11.42;100.00
69306;BME280;56427;51.580;4.656;2022-10-16T04:32:25;101027.94;;;11.36;100.00
69306;BME280;56427;51.580;4.656;2022-10-16T04:34:51;101030.78;;;11.33;100.00
69306;BME280;56427;51.580;4.656;2022-10-16T04:37:16;101027.25;;;11.34;100.00
69306;BME280;56427;51.580;4.656;2022-10-16T04:39:41;101027.25;;;11.34;100.00
69306;BME280;56427;51.580;4.656;2022-10-16T04:42:06;101028.75;;;11.36;100.00
69306;BME280;56427;51.580;4.656;2022-10-16T04:44:32;101040.94;;;11.36;100.00
69306;BME280;56427;51.580;4.656;2022-10-16T04:46:57;101040.06;;;11.26;100.00
69306;BME280;56427;51.580;4.656;2022-10-16T04:49:22;101040.88;;;11.26;100.00
69306;BME280;56427;51.580;4.656;2022-10-16T04:51:48;101043.28;;;11.18;100.00
69306;BME280;56427;51.580;4.656;2022-10-16T04:54:13;101045.44;;;11.13;100.00
69306;BME280;56427;51.580;4.656;2022-10-16T04:56:38;101056.63;;;11.13;100.00
69306;BME280;56427;51.580;4.656;2022-10-16T04:59:15;101048.59;;;11.16;100.00
69306;BME280;56427;51.580;4.656;2022-10-16T05:01:41;101062.88;;;11.22;100.00
69306;BME280;56427;51.580;4.656;2022-10-16T05:04:06;101062.03;;;11.21;100.00
69306;BME280;56427;51.580;4.656;2022-10-16T05:06:31;101066.41;;;11.21;100.00
69306;BME280;56427;51.580;4.656;2022-10-16T05:08:57;101073.13;;;11.23;100.00
69306;BME280;56427;51.580;4.656;2022-10-16T05:11:22;101071.97;;;11.16;100.00
69306;BME280;56427;51.580;4.656;2022-10-16T05:13:47;101073.25;;;11.22;100.00
69306;BME280;56427;51.580;4.656;2022-10-16T05:16:13;101067.09;;;11.23;100.00
69306;BME280;56427;51.580;4.656;2022-10-16T05:18:38;101079.72;;;11.28;100.00
69306;BME280;56427;51.580;4.656;2022-10-16T05:21:03;101081.50;;;11.27;100.00
69306;BME280;56427;51.580;4.656;2022-10-16T05:23:29;101082.31;;;11.28;100.00
69306;BME280;56427;51.580;4.656;2022-10-16T05:25:55;101095.56;;;11.24;100.00
69306;BME280;56427;51.580;4.656;2022-10-16T05:28:24;101098.59;;;11.30;100.00
69306;BME280;56427;51.580;4.656;2022-10-16T05:30:49;101098.72;;;11.28;100.00
69306;BME280;56427;51.580;4.656;2022-10-16T05:33:15;101102.34;;;11.37;100.00
69306;BME280;56427;51.580;4.656;2022-10-16T05:35:40;101106.00;;;11.34;100.00
69306;BME280;56427;51.580;4.656;2022-10-16T05:38:06;101110.97;;;11.37;100.00
69306;BME280;56427;51.580;4.656;2022-10-16T05:40:31;101110.41;;;11.34;100.00
69306;BME280;56427;51.580;4.656;2022-10-16T05:42:56;101117.38;;;11.33;100.00
69306;BME280;56427;51.580;4.656;2022-10-16T05:45:22;101113.38;;;11.29;100.00
69306;BME280;56427;51.580;4.656;2022-10-16T05:47:47;101118.13;;;11.24;100.00
69306;BME280;56427;51.580;4.656;2022-10-16T05:50:12;101122.69;;;11.32;100.00
69306;BME280;56427;51.580;4.656;2022-10-16T05:52:38;101136.25;;;11.35;100.00
69306;BME280;56427;51.580;4.656;2022-10-16T05:55:03;101127.78;;;11.33;100.00
69306;BME280;56427;51.580;4.656;2022-10-16T05:57:29;101134.59;;;11.34;100.00
69306;BME280;56427;51.580;4.656;2022-10-16T05:59:55;101141.91;;;11.40;100.00
69306;BME280;56427;51.580;4.656;2022-10-16T06:02:20;101143.63;;;11.51;100.00
69306;BME280;56427;51.580;4.656;2022-10-16T06:04:45;101144.63;;;11.60;100.00
69306;BME280;56427;51.580;4.656;2022-10-16T06:07:10;101143.22;;;11.56;100.00
69306;BME280;56427;51.580;4.656;2022-10-16T06:09:36;101147.13;;;11.62;100.00
69306;BME280;56427;51.580;4.656;2022-10-16T06:12:01;101149.59;;;11.63;100.00
69306;BME280;56427;51.580;4.656;2022-10-16T06:14:26;101155.03;;;11.60;100.00
69306;BME280;56427;51.580;4.656;2022-10-16T06:16:51;101164.94;;;11.66;100.00
69306;BME280;56427;51.580;4.656;2022-10-16T06:19:17;101161.63;;;11.64;100.00
69306;BME280;56427;51.580;4.656;2022-10-16T06:21:43;101166.94;;;11.63;100.00
69306;BME280;56427;51.580;4.656;2022-10-16T06:24:09;101157.50;;;11.62;100.00
69306;BME280;56427;51.580;4.656;2022-10-16T06:26:34;101163.28;;;11.65;100.00
69306;BME280;56427;51.580;4.656;2022-10-16T06:29:00;101171.66;;;11.69;100.00
69306;BME280;56427;51.580;4.656;2022-10-16T06:31:26;101173.31;;;11.70;100.00
69306;BME280;56427;51.580;4.656;2022-10-16T06:33:53;101177.09;;;11.66;100.00
69306;BME280;56427;51.580;4.656;2022-10-16T06:36:20;101180.97;;;11.71;100.00
69306;BME280;56427;51.580;4.656;2022-10-16T06:38:46;101182.72;;;11.71;100.00
69306;BME280;56427;51.580;4.656;2022-10-16T06:41:16;101185.47;;;11.69;100.00
69306;BME280;56427;51.580;4.656;2022-10-16T06:43:42;101198.22;;;11.72;100.00
69306;BME280;56427;51.580;4.656;2022-10-16T06:46:10;101201.97;;;11.79;100.00
69306;BME280;56427;51.580;4.656;2022-10-16T06:48:36;101207.16;;;11.79;100.00
69306;BME280;56427;51.580;4.656;2022-10-16T06:51:03;101204.75;;;11.88;100.00
69306;BME280;56427;51.580;4.656;2022-10-16T06:53:31;101216.66;;;12.02;100.00
69306;BME280;56427;51.580;4.656;2022-10-16T06:55:57;101211.47;;;12.32;100.00
69306;BME280;56427;51.580;4.656;2022-10-16T06:58:23;101220.06;;;12.54;100.00
69306;BME280;56427;51.580;4.656;2022-10-16T07:00:49;101222.41;;;12.57;100.00
69306;BME280;56427;51.580;4.656;2022-10-16T07:03:20;101223.91;;;12.60;100.00
69306;BME280;56427;51.580;4.656;2022-10-16T07:05:45;101228.03;;;12.62;100.00
69306;BME280;56427;51.580;4.656;2022-10-16T07:08:10;101233.00;;;12.65;100.00
69306;BME280;56427;51.580;4.656;2022-10-16T07:10:36;101233.59;;;12.88;100.00
69306;BME280;56427;51.580;4.656;2022-10-16T07:13:01;101238.78;;;13.29;100.00
69306;BME280;56427;51.580;4.656;2022-10-16T07:15:27;101239.91;;;13.36;100.00
69306;BME280;56427;51.580;4.656;2022-10-16T07:17:52;101240.31;;;13.41;100.00
69306;BME280;56427;51.580;4.656;2022-10-16T07:20:18;101239.63;;;13.78;100.00
69306;BME280;56427;51.580;4.656;2022-10-16T07:22:44;101248.16;;;13.71;100.00
69306;BME280;56427;51.580;4.656;2022-10-16T07:25:09;101252.66;;;13.39;100.00
69306;BME280;56427;51.580;4.656;2022-10-16T07:27:35;101257.88;;;13.39;100.00
69306;BME280;56427;51.580;4.656;2022-10-16T07:30:00;101269.78;;;13.22;100.00
69306;BME280;56427;51.580;4.656;2022-10-16T07:32:25;101272.56;;;13.40;100.00
69306;BME280;56427;51.580;4.656;2022-10-16T07:34:52;101281.91;;;13.53;100.00
69306;BME280;56427;51.580;4.656;2022-10-16T07:37:17;101284.38;;;13.64;100.00
69306;BME280;56427;51.580;4.656;2022-10-16T07:39:42;101292.72;;;13.48;100.00
69306;BME280;56427;51.580;4.656;2022-10-16T07:42:08;101305.09;;;13.46;100.00
69306;BME280;56427;51.580;4.656;2022-10-16T07:44:33;101305.34;;;14.31;100.00
69306;BME280;56427;51.580;4.656;2022-10-16T07:46:58;101304.69;;;14.76;100.00
69306;BME280;56427;51.580;4.656;2022-10-16T07:49:24;101306.94;;;14.61;100.00
69306;BME280;56427;51.580;4.656;2022-10-16T07:51:49;101304.50;;;14.87;100.00
69306;BME280;56427;51.580;4.656;2022-10-16T07:54:14;101308.56;;;14.72;100.00
69306;BME280;56427;51.580;4.656;2022-10-16T07:56:40;101317.78;;;15.04;100.00
69306;BME280;56427;51.580;4.656;2022-10-16T07:59:05;101322.28;;;15.12;100.00
69306;BME280;56427;51.580;4.656;2022-10-16T08:01:30;101319.06;;;15.63;100.00
69306;BME280;56427;51.580;4.656;2022-10-16T08:03:56;101333.31;;;15.79;100.00
69306;BME280;56427;51.580;4.656;2022-10-16T08:06:22;101337.78;;;15.87;100.00
69306;BME280;56427;51.580;4.656;2022-10-16T08:08:47;101345.84;;;15.75;100.00
69306;BME280;56427;51.580;4.656;2022-10-16T08:11:13;101338.78;;;16.30;100.00
69306;BME280;56427;51.580;4.656;2022-10-16T08:13:40;101345.09;;;16.19;100.00
69306;BME280;56427;51.580;4.656;2022-10-16T08:16:06;101349.72;;;16.43;100.00
69306;BME280;56427;51.580;4.656;2022-10-16T08:18:37;101350.72;;;16.50;100.00
69306;BME280;56427;51.580;4.656;2022-10-16T08:21:03;101359.22;;;17.05;100.00
69306;BME280;56427;51.580;4.656;2022-10-16T08:23:29;101358.34;;;16.88;100.00
69306;BME280;56427;51.580;4.656;2022-10-16T08:25:56;101367.94;;;16.53;100.00
69306;BME280;56427;51.580;4.656;2022-10-16T08:28:22;101368.59;;;16.29;100.00
69306;BME280;56427;51.580;4.656;2022-10-16T08:30:47;101373.63;;;15.86;100.00
69306;BME280;56427;51.580;4.656;2022-10-16T08:33:13;101383.88;;;15.79;100.00
69306;BME280;56427;51.580;4.656;2022-10-16T08:35:38;101378.09;;;16.56;100.00
69306;BME280;56427;51.580;4.656;2022-10-16T08:38:04;101383.78;;;16.25;100.00
69306;BME280;56427;51.580;4.656;2022-10-16T08:40:32;101382.50;;;16.29;100.00
69306;BME280;56427;51.580;4.656;2022-10-16T08:48:23;101383.75;;;16.96;100.00
69306;BME280;56427;51.580;4.656;2022-10-16T08:50:53;101391.28;;;17.25;100.00
69306;BME280;56427;51.580;4.656;2022-10-16T08:53:26;101392.63;;;16.95;100.00
69306;BME280;56427;51.580;4.656;2022-10-16T08:55:53;101396.75;;;17.40;100.00
69306;BME280;56427;51.580;4.656;2022-10-16T08:58:21;101386.81;;;17.60;100.00
69306;BME280;56427;51.580;4.656;2022-10-16T09:00:50;101396.09;;;17.97;100.00
69306;BME280;56427;51.580;4.656;2022-10-16T09:06:12;101399.59;;;17.71;100.00
69306;BME280;56427;51.580;4.656;2022-10-16T09:11:15;101402.84;;;18.32;100.00
69306;BME280;56427;51.580;4.656;2022-10-16T09:14:00;101408.25;;;18.31;100.00
69306;BME280;56427;51.580;4.656;2022-10-16T09:16:37;101403.00;;;18.47;100.00
69306;BME280;56427;51.580;4.656;2022-10-16T09:19:36;101414.63;;;18.53;100.00
69306;BME280;56427;51.580;4.656;2022-10-16T09:22:15;101418.78;;;18.39;100.00
69306;BME280;56427;51.580;4.656;2022-10-16T09:24:41;101411.69;;;18.15;100.00
69306;BME280;56427;51.580;4.656;2022-10-16T09:27:11;101411.22;;;18.28;100.00
69306;BME280;56427;51.580;4.656;2022-10-16T09:29:37;101411.03;;;17.96;100.00
69306;BME280;56427;51.580;4.656;2022-10-16T09:32:17;101409.84;;;17.91;100.00
69306;BME280;56427;51.580;4.656;2022-10-16T09:34:48;101414.22;;;17.74;100.00
69306;BME280;56427;51.580;4.656;2022-10-16T09:37:18;101421.00;;;17.84;100.00
69306;BME280;56427;51.580;4.656;2022-10-16T09:39:49;101428.28;;;18.15;100.00
69306;BME280;56427;51.580;4.656;2022-10-16T09:42:18;101425.56;;;17.82;100.00
69306;BME280;56427;51.580;4.656;2022-10-16T09:44:49;101429.66;;;17.26;100.00
69306;BME280;56427;51.580;4.656;2022-10-16T09:49:54;101426.31;;;18.01;100.00
69306;BME280;56427;51.580;4.656;2022-10-16T09:52:21;101423.19;;;18.47;100.00
69306;BME280;56427;51.580;4.656;2022-10-16T09:54:58;101422.53;;;18.20;100.00
69306;BME280;56427;51.580;4.656;2022-10-16T09:57:24;101432.53;;;18.08;100.00
69306;BME280;56427;51.580;4.656;2022-10-16T09:59:51;101426.66;;;17.55;100.00
69306;BME280;56427;51.580;4.656;2022-10-16T10:02:22;101429.97;;;17.65;100.00
69306;BME280;56427;51.580;4.656;2022-10-16T10:04:52;101442.06;;;17.93;100.00
69306;BME280;56427;51.580;4.656;2022-10-16T10:07:26;101432.53;;;17.92;100.00
69306;BME280;56427;51.580;4.656;2022-10-16T10:09:52;101439.81;;;17.72;100.00
69306;BME280;56427;51.580;4.656;2022-10-16T10:12:26;101442.09;;;17.58;100.00
69306;BME280;56427;51.580;4.656;2022-10-16T10:14:55;101447.72;;;17.72;100.00
69306;BME280;56427;51.580;4.656;2022-10-16T10:17:23;101450.53;;;17.36;100.00
69306;BME280;56427;51.580;4.656;2022-10-16T10:19:49;101452.22;;;17.53;100.00
69306;BME280;56427;51.580;4.656;2022-10-16T10:22:23;101446.28;;;17.94;100.00
69306;BME280;56427;51.580;4.656;2022-10-16T10:30:33;101461.00;;;17.70;100.00
69306;BME280;56427;51.580;4.656;2022-10-16T10:39:00;101471.16;;;18.49;100.00
69306;BME280;56427;51.580;4.656;2022-10-16T10:44:15;101475.69;;;18.06;100.00
69306;BME280;56427;51.580;4.656;2022-10-16T10:46:56;101476.91;;;17.77;100.00
69306;BME280;56427;51.580;4.656;2022-10-16T10:52:58;101473.06;;;17.97;100.00
69306;BME280;56427;51.580;4.656;2022-10-16T11:01:12;101483.56;;;18.06;100.00
69306;BME280;56427;51.580;4.656;2022-10-16T11:03:42;101487.25;;;17.70;100.00
69306;BME280;56427;51.580;4.656;2022-10-16T11:06:16;101486.41;;;17.78;100.00
69306;BME280;56427;51.580;4.656;2022-10-16T11:11:46;101482.16;;;18.19;100.00
69306;BME280;56427;51.580;4.656;2022-10-16T11:14:20;101488.16;;;17.95;100.00
69306;BME280;56427;51.580;4.656;2022-10-16T11:16:51;101491.19;;;17.82;100.00
69306;BME280;56427;51.580;4.656;2022-10-16T11:19:28;101483.72;;;18.04;100.00
69306;BME280;56427;51.580;4.656;2022-10-16T11:22:02;101494.31;;;18.45;100.00
69306;BME280;56427;51.580;4.656;2022-10-16T11:24:35;101489.03;;;18.37;100.00
69306;BME280;56427;51.580;4.656;2022-10-16T11:27:07;101493.66;;;18.92;100.00
69306;BME280;56427;51.580;4.656;2022-10-16T11:29:50;101493.97;;;18.65;100.00
69306;BME280;56427;51.580;4.656;2022-10-16T11:32:25;101495.28;;;18.36;100.00
69306;BME280;56427;51.580;4.656;2022-10-16T11:34:59;101498.31;;;17.90;100.00
69306;BME280;56427;51.580;4.656;2022-10-16T11:37:31;101505.06;;;17.93;100.00
69306;BME280;56427;51.580;4.656;2022-10-16T11:40:05;101511.97;;;18.02;100.00
69306;BME280;56427;51.580;4.656;2022-10-16T11:42:43;101504.81;;;17.86;100.00
69306;BME280;56427;51.580;4.656;2022-10-16T11:45:39;101511.88;;;17.85;100.00
69306;BME280;56427;51.580;4.656;2022-10-16T11:57:07;101508.13;;;18.39;100.00
69306;BME280;56427;51.580;4.656;2022-10-16T11:59:46;101517.31;;;18.60;100.00
69306;BME280;56427;51.580;4.656;2022-10-16T12:02:48;101515.16;;;17.79;100.00
69306;BME280;56427;51.580;4.656;2022-10-16T12:05:24;101517.94;;;17.78;100.00
69306;BME280;56427;51.580;4.656;2022-10-16T12:08:13;101520.91;;;18.26;100.00
69306;BME280;56427;51.580;4.656;2022-10-16T12:10:42;101520.94;;;18.50;100.00
69306;BME280;56427;51.580;4.656;2022-10-16T12:13:46;101515.16;;;18.80;100.00
69306;BME280;56427;51.580;4.656;2022-10-16T12:18:43;101523.72;;;18.32;100.00
69306;BME280;56427;51.580;4.656;2022-10-16T12:21:10;101522.19;;;18.13;100.00
69306;BME280;56427;51.580;4.656;2022-10-16T12:23:48;101518.16;;;17.84;100.00
69306;BME280;56427;51.580;4.656;2022-10-16T12:26:24;101522.19;;;17.71;100.00
69306;BME280;56427;51.580;4.656;2022-10-16T12:28:49;101514.63;;;17.67;100.00
69306;BME280;56427;51.580;4.656;2022-10-16T12:31:16;101515.38;;;17.52;100.00
69306;BME280;56427;51.580;4.656;2022-10-16T12:34:01;101517.53;;;17.99;100.00
69306;BME280;56427;51.580;4.656;2022-10-16T12:36:32;101516.66;;;18.82;100.00
69306;BME280;56427;51.580;4.656;2022-10-16T12:38:59;101520.25;;;19.14;100.00
69306;BME280;56427;51.580;4.656;2022-10-16T12:41:34;101514.28;;;19.37;100.00
69306;BME280;56427;51.580;4.656;2022-10-16T12:44:00;101516.34;;;18.52;100.00
69306;BME280;56427;51.580;4.656;2022-10-16T12:49:52;101510.41;;;18.26;100.00
69306;BME280;56427;51.580;4.656;2022-10-16T12:51:50;101508.94;;;18.64;100.00
69306;BME280;56427;51.580;4.656;2022-10-16T12:54:17;101509.28;;;18.86;100.00
69306;BME280;56427;51.580;4.656;2022-10-16T12:59:35;101516.63;;;19.23;100.00
69306;BME280;56427;51.580;4.656;2022-10-16T13:02:18;101515.81;;;19.71;100.00
69306;BME280;56427;51.580;4.656;2022-10-16T13:05:09;101520.03;;;19.40;100.00
69306;BME280;56427;51.580;4.656;2022-10-16T13:10:41;101525.97;;;19.26;100.00
69306;BME280;56427;51.580;4.656;2022-10-16T13:19:04;101531.78;;;19.13;100.00
69306;BME280;56427;51.580;4.656;2022-10-16T13:21:49;101537.25;;;19.59;100.00
69306;BME280;56427;51.580;4.656;2022-10-16T13:27:07;101524.97;;;19.35;100.00
69306;BME280;56427;51.580;4.656;2022-10-16T13:29:38;101521.22;;;19.85;100.00
69306;BME280;56427;51.580;4.656;2022-10-16T13:32:10;101516.28;;;19.35;100.00
69306;BME280;56427;51.580;4.656;2022-10-16T13:34:47;101527.81;;;19.73;100.00
69306;BME280;56427;51.580;4.656;2022-10-16T13:37:18;101530.63;;;19.16;100.00
69306;BME280;56427;51.580;4.656;2022-10-16T13:39:44;101530.25;;;19.35;100.00
69306;BME280;56427;51.580;4.656;2022-10-16T13:42:13;101522.50;;;19.42;100.00
69306;BME280;56427;51.580;4.656;2022-10-16T13:44:43;101517.03;;;19.52;100.00
69306;BME280;56427;51.580;4.656;2022-10-16T13:47:20;101513.81;;;19.33;100.00
69306;BME280;56427;51.580;4.656;2022-10-16T13:49:46;101509.06;;;20.08;100.00
69306;BME280;56427;51.580;4.656;2022-10-16T13:52:20;101517.53;;;19.95;100.00
69306;BME280;56427;51.580;4.656;2022-10-16T13:54:46;101517.09;;;19.75;100.00
69306;BME280;56427;51.580;4.656;2022-10-16T13:57:15;101518.31;;;20.03;100.00
69306;BME280;56427;51.580;4.656;2022-10-16T13:59:41;101525.66;;;19.85;100.00
69306;BME280;56427;51.580;4.656;2022-10-16T14:04:44;101525.84;;;19.11;100.00
69306;BME280;56427;51.580;4.656;2022-10-16T14:07:14;101512.22;;;18.99;100.00
69306;BME280;56427;51.580;4.656;2022-10-16T14:09:48;101501.22;;;18.54;100.00